createdAt,value
2022-08-09T14:46:51.327Z,28.65
2022-08-09T14:46:57.173Z,28.66
2022-08-09T14:47:44.972Z,28.74
2022-08-09T14:48:33.409Z,28.74
2022-08-09T14:49:34.657Z,28.90
2022-08-09T14:50:32.342Z,29.06
2022-08-09T14:51:31.886Z,28.90
2022-08-09T14:52:33.095Z,28.80
2022-08-09T14:53:31.858Z,28.75
2022-08-09T14:54:34.109Z,28.81
2022-08-09T14:55:32.753Z,28.87
2022-08-09T14:57:43.492Z,28.81
2022-08-09T14:58:44.083Z,28.96
2022-08-09T14:59:46.700Z,29.07
2022-08-09T15:00:48.123Z,29.12
2022-08-09T15:01:43.381Z,29.06
2022-08-09T15:02:42.281Z,29.33
2022-08-09T15:03:42.364Z,29.27
2022-08-09T15:04:42.259Z,29.15
2022-08-09T15:05:50.251Z,29.21
2022-08-09T15:06:43.257Z,29.28
2022-08-09T15:07:43.759Z,29.47
2022-08-09T15:08:42.235Z,29.65
2022-08-09T15:10:07.802Z,29.54
2022-08-09T15:10:43.237Z,29.70
2022-08-09T15:11:48.267Z,29.83
2022-08-09T15:12:45.040Z,29.77
2022-08-09T15:13:56.480Z,29.63
2022-08-09T15:14:43.249Z,29.84
2022-08-09T15:15:43.843Z,29.84
2022-08-09T15:16:42.203Z,30.02
2022-08-09T15:17:46.160Z,30.02
2022-08-09T15:18:43.357Z,30.11
2022-08-09T15:19:59.589Z,30.21
2022-08-09T15:21:55.400Z,30.24
2022-08-09T15:21:56.202Z,30.20
2022-08-09T15:22:47.154Z,30.20
2022-08-09T15:24:03.094Z,30.22
2022-08-09T15:24:44.293Z,30.39
2022-08-09T15:25:43.249Z,30.33
2022-08-09T15:26:45.969Z,30.24
2022-08-09T15:27:47.871Z,30.21
2022-08-09T15:28:44.249Z,30.13
2022-08-09T15:30:58.652Z,29.91
2022-08-09T15:30:59.435Z,29.78
2022-08-09T15:31:44.245Z,29.86
2022-08-09T15:32:43.519Z,29.66
2022-08-09T15:34:17.349Z,29.59
2022-08-09T15:34:44.213Z,29.76
2022-08-09T15:35:44.735Z,29.77
2022-08-09T15:36:48.200Z,29.87
2022-08-09T15:37:57.073Z,29.87
2022-08-09T15:38:44.189Z,30.08
2022-08-09T15:39:53.495Z,30.15
2022-08-09T15:40:44.408Z,30.02
2022-08-09T15:41:47.091Z,30.10
2022-08-09T15:42:44.195Z,29.68
2022-08-09T15:43:43.157Z,29.86
2022-08-09T15:44:43.170Z,29.66
2022-08-09T15:45:51.915Z,29.27
2022-08-09T15:46:43.180Z,29.46
2022-08-09T15:47:52.857Z,29.41
2022-08-09T15:48:43.136Z,29.61
2022-08-09T15:50:00.713Z,29.52
2022-08-09T15:50:44.137Z,29.59
2022-08-09T15:52:02.058Z,29.49
2022-08-09T15:52:45.008Z,29.28
2022-08-09T15:54:05.154Z,29.39
2022-08-09T15:54:49.382Z,29.37
2022-08-09T15:56:04.093Z,29.33
2022-08-09T15:56:43.118Z,29.25
2022-08-09T15:57:44.304Z,29.15
2022-08-09T15:58:44.086Z,28.98
2022-08-09T15:59:48.396Z,28.83
2022-08-09T16:00:44.142Z,28.87
2022-08-09T16:01:43.083Z,28.91
2022-08-09T16:02:43.375Z,29.04
2022-08-09T16:03:44.061Z,29.00
2022-08-09T16:04:43.059Z,29.12
2022-08-09T16:05:53.445Z,29.06
2022-08-09T16:06:44.525Z,29.06
2022-08-09T16:07:46.103Z,29.02
2022-08-09T16:08:44.583Z,28.53
2022-08-09T16:10:02.165Z,28.43
2022-08-09T16:10:56.453Z,28.49
2022-08-09T16:11:48.522Z,28.59
2022-08-09T16:12:50.612Z,28.64
2022-08-09T16:14:03.760Z,28.57
2022-08-09T16:14:44.013Z,28.44
2022-08-09T16:16:11.626Z,28.52
2022-08-09T16:16:48.154Z,28.50
2022-08-09T16:17:46.705Z,28.44
2022-08-09T16:18:45.167Z,28.43
2022-08-09T16:19:49.709Z,28.49
2022-08-09T16:20:44.030Z,28.65
2022-08-09T16:21:42.983Z,28.68
2022-08-09T16:22:48.570Z,28.77
2022-08-09T16:23:48.047Z,28.66
2022-08-09T16:24:44.053Z,28.81
2022-08-09T16:25:43.952Z,28.80
2022-08-09T16:26:42.942Z,28.91
2022-08-09T16:27:43.931Z,28.90
2022-08-09T16:28:43.929Z,28.81
2022-08-09T16:29:50.681Z,28.71
2022-08-09T16:30:44.559Z,28.53
2022-08-09T16:32:19.329Z,28.19
2022-08-09T16:32:49.433Z,28.38
2022-08-09T16:33:43.933Z,28.49
2022-08-09T16:34:55.775Z,28.49
2022-08-09T16:35:55.905Z,28.34
2022-08-09T16:36:42.891Z,28.43
2022-08-09T16:37:55.541Z,28.35
2022-08-09T16:38:43.896Z,28.31
2022-08-09T16:39:54.803Z,28.24
2022-08-09T16:40:43.925Z,28.13
2022-08-09T16:42:03.473Z,28.06
2022-08-09T16:42:44.910Z,28.07
2022-08-09T16:43:42.850Z,27.91
2022-08-09T16:44:42.846Z,27.91
2022-08-09T16:45:44.242Z,27.78
2022-08-09T16:46:55.174Z,27.91
2022-08-09T16:48:40.587Z,28.01
2022-08-09T16:48:51.003Z,27.94
2022-08-09T16:50:29.272Z,27.95
2022-08-09T16:50:59.109Z,27.98
2022-08-09T16:51:42.829Z,27.82
2022-08-09T16:52:43.125Z,27.76
2022-08-09T16:54:02.260Z,27.76
2022-08-09T16:54:42.795Z,27.73
2022-08-09T16:56:00.134Z,27.69
2022-08-09T16:56:49.168Z,27.53
2022-08-09T16:58:09.295Z,27.60
2022-08-09T16:58:50.558Z,27.69
2022-08-09T16:59:43.957Z,27.63
2022-08-09T17:00:43.833Z,27.54
2022-08-09T17:01:45.584Z,27.63
2022-08-09T17:02:46.390Z,27.64
2022-08-09T17:03:42.739Z,27.49
2022-08-09T17:04:42.743Z,27.60
2022-08-09T17:06:02.842Z,27.64
2022-08-09T17:08:40.585Z,27.72
2022-08-09T17:08:42.899Z,27.68
2022-08-09T17:09:01.616Z,27.76
2022-08-09T17:09:47.047Z,27.76
2022-08-09T17:10:42.712Z,27.69
2022-08-09T17:11:42.753Z,27.70
2022-08-09T17:12:42.771Z,27.64
2022-08-09T17:13:45.242Z,27.72
2022-08-09T17:14:47.922Z,27.68
2022-08-09T17:16:00.405Z,27.42
2022-08-09T17:16:43.678Z,27.45
2022-08-09T17:17:50.432Z,27.50
2022-08-09T17:18:45.271Z,27.53
2022-08-09T17:20:04.947Z,27.64
2022-08-09T17:20:50.936Z,27.54
2022-08-09T17:21:46.615Z,27.54
2022-08-09T17:22:50.269Z,27.47
2022-08-09T17:24:20.442Z,27.32
2022-08-09T17:24:47.728Z,27.47
2022-08-09T17:25:43.640Z,27.54
2022-08-09T17:26:42.624Z,27.69
2022-08-09T17:27:49.490Z,27.64
2022-08-09T17:28:43.615Z,27.63
2022-08-09T17:29:45.558Z,27.69
2022-08-09T17:30:47.784Z,27.69
2022-08-09T17:31:45.759Z,27.63
2022-08-09T17:32:44.353Z,27.49
2022-08-09T17:33:42.592Z,27.47
2022-08-09T17:35:04.297Z,27.42
2022-08-09T17:35:43.907Z,27.40
2022-08-09T17:36:53.154Z,27.54
2022-08-09T17:38:14.243Z,27.57
2022-08-09T17:38:43.563Z,27.45
2022-08-09T17:39:52.822Z,27.25
2022-08-09T17:40:42.607Z,27.38
2022-08-09T17:41:42.559Z,27.31
2022-08-09T17:42:42.694Z,27.22
2022-08-09T17:43:45.796Z,27.19
2022-08-09T17:44:48.969Z,27.12
2022-08-09T17:46:03.863Z,27.07
2022-08-09T17:46:55.712Z,26.93
2022-08-09T17:47:48.388Z,26.88
2022-08-09T17:48:52.169Z,26.83
2022-08-09T17:49:54.236Z,26.93
2022-08-09T17:50:55.869Z,26.93
2022-08-09T17:51:42.694Z,26.78
2022-08-09T17:52:42.479Z,26.78
2022-08-09T17:53:48.192Z,26.71
2022-08-09T17:54:42.467Z,26.71
2022-08-09T17:55:49.335Z,26.80
2022-08-09T17:56:43.476Z,26.67
2022-08-09T17:58:02.555Z,26.61
2022-08-09T17:58:42.927Z,26.53
2022-08-09T17:59:42.453Z,26.57
2022-08-09T18:00:46.620Z,26.45
2022-08-09T18:02:03.364Z,26.58
2022-08-09T18:02:43.527Z,26.46
2022-08-09T18:03:43.456Z,26.36
2022-08-09T18:04:42.424Z,26.33
2022-08-09T18:05:43.902Z,26.23
2022-08-09T18:06:43.120Z,26.26
2022-08-09T18:07:48.544Z,26.26
2022-08-09T18:08:44.395Z,26.26
2022-08-09T18:09:42.390Z,26.24
2022-08-09T18:10:42.527Z,26.27
2022-08-09T18:12:05.925Z,26.12
2022-08-09T18:13:39.270Z,26.16
2022-08-09T18:14:00.483Z,26.15
2022-08-09T18:14:49.501Z,26.11
2022-08-09T18:16:05.433Z,26.03
2022-08-09T18:16:48.690Z,25.89
2022-08-09T18:18:03.287Z,25.82
2022-08-09T18:18:49.346Z,25.81
2022-08-09T18:20:54.197Z,25.86
2022-08-09T18:20:54.368Z,25.83
2022-08-09T18:21:43.308Z,25.73
2022-08-09T18:22:44.118Z,25.73
2022-08-09T18:24:11.014Z,25.67
2022-08-09T18:24:43.348Z,25.45
2022-08-09T18:25:53.292Z,25.31
2022-08-09T18:26:46.011Z,25.31
2022-08-09T18:28:04.105Z,25.27
2022-08-09T18:30:41.928Z,25.03
2022-08-09T18:30:42.606Z,25.22
2022-08-09T18:30:49.683Z,25.09
2022-08-09T18:31:55.313Z,24.96
2022-08-09T18:32:43.253Z,24.94
2022-08-09T18:33:52.976Z,24.81
2022-08-09T18:34:43.263Z,24.74
2022-08-09T18:35:58.663Z,24.75
2022-08-09T18:36:42.234Z,24.60
2022-08-09T18:37:47.500Z,24.58
2022-08-09T18:38:42.217Z,24.41
2022-08-09T18:39:42.271Z,24.44
2022-08-09T18:40:42.257Z,24.36
2022-08-09T18:41:52.887Z,24.19
2022-08-09T18:42:43.935Z,24.10
2022-08-09T18:43:52.862Z,24.06
2022-08-09T18:44:43.202Z,23.78
2022-08-09T18:46:48.487Z,23.67
2022-08-09T18:46:49.085Z,23.69
2022-08-09T18:47:43.179Z,23.59
2022-08-09T18:48:43.163Z,23.51
2022-08-09T18:49:46.255Z,23.34
2022-08-09T18:50:42.171Z,23.26
2022-08-09T18:51:55.413Z,23.22
2022-08-09T18:52:43.253Z,23.21
2022-08-09T18:53:59.597Z,23.26
2022-08-09T18:54:49.673Z,23.14
2022-08-09T18:55:56.500Z,23.03
2022-08-09T18:56:43.160Z,23.04
2022-08-09T18:57:44.549Z,23.01
2022-08-09T18:58:42.120Z,22.93
2022-08-09T18:59:49.047Z,22.85
2022-08-09T19:00:42.112Z,22.78
2022-08-09T19:01:46.022Z,22.68
2022-08-09T19:02:42.231Z,22.64
2022-08-09T19:03:54.570Z,22.61
2022-08-09T19:04:47.582Z,22.59
2022-08-09T19:06:02.440Z,22.58
2022-08-09T19:06:43.519Z,22.49
2022-08-09T19:07:43.239Z,22.51
2022-08-09T19:08:43.055Z,22.43
2022-08-09T19:10:14.121Z,22.27
2022-08-09T19:10:42.052Z,22.21
2022-08-09T19:11:42.048Z,22.21
2022-08-09T19:12:42.045Z,22.27
2022-08-09T19:13:51.333Z,22.25
2022-08-09T19:14:43.560Z,22.13
2022-08-09T19:15:42.041Z,22.11
2022-08-09T19:16:50.400Z,22.15
2022-08-09T19:17:54.895Z,22.01
2022-08-09T19:18:45.491Z,21.98
2022-08-09T19:19:42.247Z,21.90
2022-08-09T19:20:42.002Z,21.77
2022-08-09T19:21:47.675Z,21.74
2022-08-09T19:22:54.226Z,21.74
2022-08-09T19:24:35.660Z,21.77
2022-08-09T19:25:09.651Z,21.65
2022-08-09T19:26:02.225Z,21.58
2022-08-09T19:26:42.950Z,21.56
2022-08-09T19:27:41.948Z,21.41
2022-08-09T19:28:42.675Z,21.55
2022-08-09T19:30:22.145Z,21.43
2022-08-09T19:30:44.328Z,21.37
2022-08-09T19:31:45.228Z,21.19
2022-08-09T19:32:41.957Z,21.23
2022-08-09T19:33:41.936Z,21.20
2022-08-09T19:34:45.548Z,21.14
2022-08-09T19:35:57.199Z,21.11
2022-08-09T19:36:43.733Z,21.07
2022-08-09T19:37:56.001Z,21.00
2022-08-09T19:38:42.987Z,21.00
2022-08-09T19:40:02.701Z,20.82
2022-08-09T19:40:42.933Z,20.89
2022-08-09T19:41:42.256Z,20.74
2022-08-09T19:42:41.868Z,20.67
2022-08-09T19:44:00.909Z,20.55
2022-08-09T19:44:42.840Z,20.53
2022-08-09T19:45:42.229Z,20.46
2022-08-09T19:46:50.900Z,20.36
2022-08-09T19:47:43.574Z,20.37
2022-08-09T19:49:01.608Z,20.30
2022-08-09T19:50:10.288Z,20.29
2022-08-09T19:50:51.551Z,20.34
2022-08-09T19:51:43.559Z,20.27
2022-08-09T19:52:49.376Z,20.26
2022-08-09T19:53:45.587Z,20.12
2022-08-09T19:54:41.811Z,20.00
2022-08-09T19:56:03.226Z,19.99
2022-08-09T19:56:44.582Z,19.96
2022-08-09T19:57:42.858Z,19.84
2022-08-09T19:58:41.784Z,19.81
2022-08-09T20:00:05.928Z,19.70
2022-08-09T20:00:42.762Z,19.71
2022-08-09T20:01:52.183Z,19.63
2022-08-09T20:04:17.916Z,19.60
2022-08-09T20:04:18.548Z,19.60
2022-08-09T20:04:52.999Z,19.60
2022-08-09T20:05:46.289Z,19.62
2022-08-09T20:06:42.204Z,19.62
2022-08-09T20:07:58.838Z,19.59
2022-08-09T20:08:42.859Z,19.49
2022-08-09T20:09:44.335Z,19.52
2022-08-09T20:10:41.727Z,19.50
2022-08-09T20:11:45.227Z,19.47
2022-08-09T20:12:45.954Z,19.38
2022-08-09T20:13:41.752Z,19.37
2022-08-09T20:14:43.691Z,19.31
2022-08-09T20:16:34.296Z,19.26
2022-08-09T20:16:50.134Z,19.27
2022-08-09T20:17:48.626Z,19.15
2022-08-09T20:19:04.020Z,19.09
2022-08-09T20:19:53.711Z,19.22
2022-08-09T20:20:41.686Z,19.04
2022-08-09T20:21:56.645Z,19.04
2022-08-09T20:22:42.881Z,19.00
2022-08-09T20:23:41.707Z,18.93
2022-08-09T20:24:41.652Z,18.85
2022-08-09T20:25:51.889Z,18.79
2022-08-09T20:26:41.618Z,18.76
2022-08-09T20:27:41.771Z,18.68
2022-08-09T20:28:48.541Z,18.66
2022-08-09T20:29:42.616Z,18.66
2022-08-09T20:30:41.610Z,18.70
2022-08-09T20:32:17.110Z,18.68
2022-08-09T20:32:41.899Z,18.71
2022-08-09T20:33:44.099Z,18.76
2022-08-09T20:34:41.585Z,18.63
2022-08-09T20:35:41.607Z,18.57
2022-08-09T20:36:41.589Z,18.63
2022-08-09T20:38:23.939Z,18.57
2022-08-09T20:39:29.050Z,18.49
2022-08-09T20:40:14.938Z,18.56
2022-08-09T20:40:42.612Z,18.58
2022-08-09T20:41:41.623Z,18.54
2022-08-09T20:42:41.519Z,18.49
2022-08-09T20:43:44.856Z,18.42
2022-08-09T20:44:41.520Z,18.42
2022-08-09T20:46:00.452Z,18.39
2022-08-09T20:46:42.971Z,18.27
2022-08-09T20:47:48.127Z,18.41
2022-08-09T20:48:42.041Z,18.33
2022-08-09T20:49:41.536Z,18.38
2022-08-09T20:50:47.066Z,18.28
2022-08-09T20:51:42.554Z,18.23
2022-08-09T20:52:41.463Z,18.18
2022-08-09T20:53:41.480Z,18.21
2022-08-09T20:54:52.761Z,18.17
2022-08-09T20:55:47.182Z,18.11
2022-08-09T20:56:41.468Z,18.23
2022-08-09T20:58:05.216Z,18.20
2022-08-09T20:59:09.976Z,18.02
2022-08-09T21:00:19.266Z,18.03
2022-08-09T21:00:45.220Z,17.94
2022-08-09T21:01:50.903Z,17.94
2022-08-09T21:02:42.556Z,17.97
2022-08-09T21:05:49.101Z,17.84
2022-08-09T21:05:50.886Z,17.86
2022-08-09T21:05:55.221Z,17.84
2022-08-09T21:06:42.702Z,17.90
2022-08-09T21:07:44.445Z,17.86
2022-08-09T21:08:41.499Z,17.88
2022-08-09T21:09:45.988Z,17.84
2022-08-09T21:10:42.996Z,17.86
2022-08-09T21:12:46.028Z,17.83
2022-08-09T21:13:59.100Z,17.86
2022-08-09T21:14:42.346Z,17.84
2022-08-09T21:15:54.329Z,17.73
2022-08-09T21:16:42.310Z,17.72
2022-08-09T21:18:23.977Z,17.76
2022-08-09T21:20:04.192Z,17.73
2022-08-09T21:20:17.206Z,17.62
2022-08-09T21:20:42.334Z,17.65
2022-08-09T21:21:46.207Z,17.59
2022-08-09T21:22:41.282Z,17.47
2022-08-09T21:23:50.995Z,17.63
2022-08-09T21:24:42.310Z,17.59
2022-08-09T21:25:44.430Z,17.49
2022-08-09T21:26:42.265Z,17.37
2022-08-09T21:27:52.168Z,17.35
2022-08-09T21:28:55.933Z,17.35
2022-08-09T21:29:49.603Z,17.31
2022-08-09T21:30:41.289Z,17.37
2022-08-09T21:31:48.748Z,17.27
2022-08-09T21:32:42.243Z,17.28
2022-08-09T21:33:41.258Z,17.34
2022-08-09T21:34:48.428Z,17.28
2022-08-09T21:35:51.154Z,17.28
2022-08-09T21:36:55.377Z,17.25
2022-08-09T21:37:58.619Z,17.16
2022-08-09T21:38:42.221Z,17.10
2022-08-09T21:39:42.254Z,17.07
2022-08-09T21:40:41.201Z,17.06
2022-08-09T21:42:05.478Z,17.01
2022-08-09T21:42:42.172Z,16.98
2022-08-09T21:43:57.868Z,16.92
2022-08-09T21:44:42.902Z,16.88
2022-08-09T21:45:41.196Z,16.82
2022-08-09T21:46:41.192Z,16.83
2022-08-09T21:47:41.181Z,16.88
2022-08-09T21:48:42.743Z,16.84
2022-08-09T21:49:42.773Z,16.84
2022-08-09T21:50:43.459Z,16.79
2022-08-09T21:51:43.904Z,16.88
2022-08-09T21:52:41.152Z,16.82
2022-08-09T21:53:41.573Z,16.83
2022-08-09T21:54:41.144Z,16.73
2022-08-09T21:55:46.569Z,16.76
2022-08-09T21:56:44.565Z,16.76
2022-08-09T21:57:58.786Z,16.73
2022-08-09T21:58:42.526Z,16.74
2022-08-09T21:59:42.833Z,16.70
2022-08-09T22:00:41.107Z,16.76
2022-08-09T22:01:59.012Z,16.69
2022-08-09T22:02:42.941Z,16.61
2022-08-09T22:03:57.097Z,16.59
2022-08-09T22:04:57.129Z,16.62
2022-08-09T22:05:42.622Z,16.57
2022-08-09T22:06:41.061Z,16.54
2022-08-09T22:07:41.746Z,16.55
2022-08-09T22:08:41.095Z,16.44
2022-08-09T22:09:43.645Z,16.52
2022-08-09T22:11:49.056Z,16.51
2022-08-09T22:12:05.790Z,16.39
2022-08-09T22:12:49.780Z,16.44
2022-08-09T22:13:43.367Z,16.39
2022-08-09T22:14:41.008Z,16.43
2022-08-09T22:15:41.013Z,16.37
2022-08-09T22:16:41.004Z,16.39
2022-08-09T22:17:45.953Z,16.42
2022-08-09T22:18:53.594Z,16.40
2022-08-09T22:19:59.821Z,16.39
2022-08-09T22:20:41.974Z,16.42
2022-08-09T22:21:45.065Z,16.37
2022-08-09T22:22:41.972Z,16.28
2022-08-09T22:23:59.251Z,16.22
2022-08-09T22:24:53.603Z,16.22
2022-08-09T22:26:06.786Z,16.24
2022-08-09T22:26:41.975Z,16.24
2022-08-09T22:27:42.240Z,16.24
2022-08-09T22:28:43.658Z,16.24
2022-08-09T22:29:46.523Z,16.24
2022-08-09T22:30:48.691Z,16.14
2022-08-09T22:31:50.474Z,16.25
2022-08-09T22:32:41.928Z,16.06
2022-08-09T22:33:55.212Z,16.13
2022-08-09T22:34:40.901Z,16.18
2022-08-09T22:36:01.574Z,16.16
2022-08-09T22:36:46.312Z,16.17
2022-08-09T22:37:42.097Z,16.17
2022-08-09T22:38:40.899Z,16.25
2022-08-09T22:39:58.246Z,16.08
2022-08-09T22:40:49.284Z,16.18
2022-08-09T22:41:41.953Z,16.10
2022-08-09T22:42:40.894Z,15.99
2022-08-09T22:44:02.190Z,15.93
2022-08-09T22:44:45.606Z,15.91
2022-08-09T22:48:14.396Z,15.98
2022-08-09T22:48:14.554Z,15.95
2022-08-09T22:48:18.555Z,15.88
2022-08-09T22:48:50.573Z,16.05
2022-08-09T22:49:41.832Z,15.98
2022-08-09T22:50:40.808Z,15.95
2022-08-09T22:51:49.663Z,15.93
2022-08-09T22:52:41.823Z,15.88
2022-08-09T22:53:58.225Z,15.91
2022-08-09T22:54:41.801Z,15.81
2022-08-09T22:56:30.313Z,15.85
2022-08-09T22:56:41.981Z,15.81
2022-08-09T22:57:44.449Z,15.93
2022-08-09T22:58:40.774Z,15.85
2022-08-09T22:59:56.305Z,15.77
2022-08-09T23:00:40.761Z,15.78
2022-08-09T23:01:40.804Z,15.63
2022-08-09T23:02:40.799Z,15.51
2022-08-09T23:04:03.294Z,15.56
2022-08-09T23:04:41.712Z,15.50
2022-08-09T23:05:40.717Z,15.47
2022-08-09T23:06:41.702Z,15.38
2022-08-09T23:08:27.483Z,15.44
2022-08-09T23:08:41.700Z,15.38
2022-08-09T23:09:40.705Z,15.29
2022-08-09T23:10:43.796Z,15.17
2022-08-09T23:11:41.681Z,15.15
2022-08-09T23:12:40.684Z,15.27
2022-08-09T23:13:40.717Z,15.22
2022-08-09T23:14:41.677Z,15.25
2022-08-09T23:15:40.748Z,15.32
2022-08-09T23:16:40.654Z,15.33
2022-08-09T23:17:40.644Z,15.35
2022-08-09T23:18:40.670Z,15.47
2022-08-09T23:20:01.038Z,15.40
2022-08-09T23:20:41.634Z,15.33
2022-08-09T23:21:40.620Z,15.29
2022-08-09T23:22:40.622Z,15.26
2022-08-09T23:23:40.628Z,15.30
2022-08-09T23:24:40.699Z,15.33
2022-08-09T23:25:40.584Z,15.30
2022-08-09T23:26:40.593Z,15.27
2022-08-09T23:28:14.001Z,15.22
2022-08-09T23:28:41.585Z,15.25
2022-08-09T23:29:40.601Z,15.19
2022-08-09T23:30:40.595Z,15.17
2022-08-09T23:31:40.578Z,14.97
2022-08-09T23:32:40.580Z,15.04
2022-08-09T23:33:40.563Z,15.07
2022-08-09T23:34:40.555Z,14.97
2022-08-09T23:36:05.980Z,15.03
2022-08-09T23:36:40.537Z,14.99
2022-08-09T23:37:40.526Z,14.99
2022-08-09T23:38:49.059Z,14.97
2022-08-09T23:39:42.187Z,14.95
2022-08-09T23:40:40.641Z,14.92
2022-08-09T23:41:40.514Z,14.99
2022-08-09T23:42:40.782Z,14.95
2022-08-09T23:43:40.503Z,14.95
2022-08-09T23:44:40.494Z,14.93
2022-08-09T23:45:40.499Z,14.96
2022-08-09T23:46:40.524Z,14.96
2022-08-09T23:47:40.480Z,14.85
2022-08-09T23:48:40.467Z,14.82
2022-08-09T23:49:40.461Z,14.78
2022-08-09T23:50:40.444Z,14.78
2022-08-09T23:51:40.475Z,14.87
2022-08-09T23:52:40.423Z,14.77
2022-08-09T23:53:40.472Z,14.67
2022-08-09T23:54:40.431Z,14.82
2022-08-09T23:55:40.409Z,14.66
2022-08-09T23:56:54.149Z,14.70
2022-08-09T23:57:44.982Z,14.73
2022-08-09T23:58:41.416Z,14.70
2022-08-09T23:59:40.453Z,14.64
